createdAt,value
2019-05-22T00:01:20.514Z,4.12
2019-05-22T00:04:06.873Z,3.92
2019-05-22T00:06:41.235Z,4.37
2019-05-22T00:09:16.330Z,4.97
2019-05-22T00:11:48.548Z,4.53
2019-05-22T00:14:19.667Z,5.17
2019-05-22T00:16:50.150Z,4.92
2019-05-22T00:19:20.563Z,5.15
2019-05-22T00:21:51.670Z,5.10
2019-05-22T00:24:22.994Z,4.90
2019-05-22T00:26:54.100Z,4.92
2019-05-22T00:29:24.427Z,5.17
2019-05-22T00:31:54.858Z,5.10
2019-05-22T00:34:25.852Z,5.35
2019-05-22T00:36:56.803Z,5.72
2019-05-22T00:39:27.865Z,5.30
2019-05-22T00:41:58.279Z,5.55
2019-05-22T00:44:29.607Z,5.90
2019-05-22T00:47:01.146Z,6.08
2019-05-22T00:49:33.360Z,6.22
2019-05-22T00:52:04.365Z,5.05
2019-05-22T00:54:44.183Z,5.78
2019-05-22T00:57:24.391Z,5.67
2019-05-22T00:59:55.385Z,5.95
2019-05-22T01:02:31.161Z,5.22
2019-05-22T01:05:02.684Z,5.80
2019-05-22T01:07:37.249Z,4.40
2019-05-22T01:10:11.322Z,5.40
2019-05-22T01:12:43.164Z,4.85
2019-05-22T01:15:19.919Z,5.40
2019-05-22T01:17:51.244Z,6.30
2019-05-22T01:23:02.383Z,5.05
2019-05-22T01:25:34.077Z,5.08
2019-05-22T01:28:06.390Z,5.90
2019-05-22T01:30:38.688Z,6.85
2019-05-22T01:33:12.293Z,6.90
2019-05-22T01:35:56.094Z,7.40
2019-05-22T01:38:25.945Z,9.13
2019-05-22T01:43:55.706Z,6.87
2019-05-22T01:46:28.320Z,6.17
2019-05-22T01:49:01.344Z,5.78
2019-05-22T01:51:30.779Z,6.12
2019-05-22T01:54:00.948Z,5.20
2019-05-22T01:56:33.531Z,5.65
2019-05-22T01:59:04.651Z,4.85
2019-05-22T02:01:34.062Z,5.50
2019-05-22T02:04:05.071Z,5.28
2019-05-22T02:06:34.482Z,5.47
2019-05-22T02:09:17.332Z,5.03
2019-05-22T02:11:49.660Z,5.30
2019-05-22T02:14:22.364Z,5.47
2019-05-22T02:16:56.938Z,5.67
2019-05-22T02:19:24.547Z,5.15
2019-05-22T02:21:55.243Z,5.70
2019-05-22T02:24:25.268Z,5.40
2019-05-22T02:26:54.701Z,4.85
2019-05-22T02:29:24.129Z,5.53
2019-05-22T02:31:55.809Z,5.28
2019-05-22T02:34:26.325Z,4.33
2019-05-22T02:36:57.877Z,3.72
2019-05-22T02:39:32.915Z,3.40
2019-05-22T02:42:08.508Z,3.70
2019-05-22T02:44:38.249Z,3.55
2019-05-22T02:47:19.018Z,3.77
2019-05-22T02:49:41.460Z,3.58
2019-05-22T02:52:11.480Z,3.77
2019-05-22T02:54:40.904Z,3.67
2019-05-22T02:57:11.956Z,3.60
2019-05-22T02:59:42.435Z,3.92
2019-05-22T03:02:14.151Z,3.45
2019-05-22T03:04:56.246Z,3.52
2019-05-22T03:07:27.506Z,3.67
2019-05-22T03:09:57.331Z,3.30
2019-05-22T03:12:29.932Z,3.02
2019-05-22T03:15:01.397Z,3.10
2019-05-22T03:17:31.565Z,3.58
2019-05-22T03:20:04.726Z,3.15
2019-05-22T03:22:40.933Z,3.02
2019-05-22T03:25:13.647Z,2.40
2019-05-22T03:27:46.876Z,2.58
2019-05-22T03:30:43.970Z,2.92
2019-05-22T03:33:13.517Z,3.37
2019-05-22T03:35:46.350Z,4.37
2019-05-22T03:38:18.171Z,4.20
2019-05-22T03:40:51.011Z,2.70
2019-05-22T03:43:27.080Z,3.10
2019-05-22T03:45:57.290Z,2.70
2019-05-22T03:48:29.627Z,2.60
2019-05-22T03:51:07.931Z,2.37
2019-05-22T03:53:38.280Z,2.40
2019-05-22T03:56:07.692Z,2.37
2019-05-22T03:58:37.334Z,2.33
2019-05-22T04:01:08.259Z,2.70
2019-05-22T04:03:38.622Z,2.70
2019-05-22T04:06:10.047Z,2.40
2019-05-22T04:08:39.544Z,2.52
2019-05-22T04:11:13.202Z,2.50
2019-05-22T04:13:42.731Z,2.62
2019-05-22T04:16:13.821Z,2.60
2019-05-22T04:18:44.404Z,2.08
2019-05-22T04:21:13.836Z,2.67
2019-05-22T04:23:43.380Z,2.40
2019-05-22T04:26:13.881Z,2.22
2019-05-22T04:29:09.824Z,2.52
2019-05-22T04:31:58.943Z,2.30
2019-05-22T04:34:29.084Z,2.47
2019-05-22T04:36:58.524Z,2.52
2019-05-22T04:39:29.685Z,2.33
2019-05-22T04:42:01.009Z,3.22
2019-05-22T04:44:31.031Z,2.80
2019-05-22T04:47:01.145Z,2.60
2019-05-22T04:49:31.261Z,2.40
2019-05-22T04:52:00.824Z,1.87
2019-05-22T04:54:30.343Z,1.85
2019-05-22T04:56:59.766Z,1.87
2019-05-22T04:59:30.400Z,1.85
2019-05-22T05:01:59.908Z,2.17
2019-05-22T05:04:29.552Z,2.25
2019-05-22T05:06:59.185Z,2.02
2019-05-22T05:09:29.930Z,1.80
2019-05-22T05:11:59.382Z,1.90
2019-05-22T05:14:29.195Z,2.02
2019-05-22T05:16:58.627Z,2.52
2019-05-22T05:19:28.232Z,2.30
2019-05-22T05:21:57.693Z,2.40
2019-05-22T05:24:27.122Z,2.10
2019-05-22T05:26:58.021Z,2.12
2019-05-22T05:29:46.724Z,1.80
2019-05-22T05:32:16.365Z,2.00
2019-05-22T05:34:52.228Z,2.10
2019-05-22T05:37:23.226Z,1.80
2019-05-22T05:40:04.562Z,1.50
2019-05-22T05:42:34.074Z,2.00
2019-05-22T05:45:04.008Z,2.00
2019-05-22T05:47:33.637Z,2.10
2019-05-22T05:50:03.765Z,1.85
2019-05-22T05:52:33.122Z,1.70
2019-05-22T05:55:03.320Z,1.35
2019-05-22T05:57:38.942Z,1.62
2019-05-22T06:00:24.561Z,2.00
2019-05-22T06:02:56.974Z,2.00
2019-05-22T06:05:26.339Z,2.17
2019-05-22T06:07:55.689Z,1.65
2019-05-22T06:10:28.358Z,1.70
2019-05-22T06:12:58.775Z,1.80
2019-05-22T06:16:00.948Z,1.77
2019-05-22T06:18:34.871Z,2.20
2019-05-22T06:21:06.183Z,1.95
2019-05-22T06:24:00.308Z,2.12
2019-05-22T06:26:38.342Z,2.00
2019-05-22T06:29:08.176Z,1.70
2019-05-22T06:31:47.013Z,1.70
2019-05-22T06:34:16.869Z,1.53
2019-05-22T06:36:46.688Z,1.85
2019-05-22T06:39:17.220Z,2.40
2019-05-22T06:41:48.354Z,1.73
2019-05-22T06:44:30.226Z,1.50
2019-05-22T06:47:00.082Z,1.93
2019-05-22T06:49:34.856Z,2.03
2019-05-22T06:52:08.276Z,1.80
2019-05-22T06:54:38.516Z,1.80
2019-05-22T06:57:13.806Z,1.83
2019-05-22T06:59:43.733Z,1.80
2019-05-22T07:02:16.325Z,1.73
2019-05-22T07:04:46.354Z,1.70
2019-05-22T07:07:15.657Z,1.50
2019-05-22T07:09:45.692Z,1.40
2019-05-22T07:12:18.234Z,1.50
2019-05-22T07:15:02.571Z,1.73
2019-05-22T07:17:31.746Z,2.10
2019-05-22T07:20:02.430Z,1.50
2019-05-22T07:22:32.555Z,1.57
2019-05-22T07:25:01.763Z,1.30
2019-05-22T07:27:31.781Z,1.30
2019-05-22T07:30:00.900Z,1.10
2019-05-22T07:32:31.221Z,1.30
2019-05-22T07:35:00.438Z,1.33
2019-05-22T07:37:30.272Z,1.20
2019-05-22T07:39:59.315Z,0.87
2019-05-22T07:42:28.485Z,1.83
2019-05-22T07:44:57.533Z,1.30
2019-05-22T07:47:27.068Z,1.40
2019-05-22T07:49:56.110Z,1.53
2019-05-22T07:52:25.568Z,1.43
2019-05-22T07:54:54.710Z,1.00
2019-05-22T07:57:24.729Z,1.00
2019-05-22T07:59:54.056Z,1.40
2019-05-22T08:02:25.679Z,1.30
2019-05-22T08:04:55.092Z,0.90
2019-05-22T08:07:28.394Z,1.10
2019-05-22T08:09:57.509Z,1.07
2019-05-22T08:12:27.543Z,1.00
2019-05-22T08:14:56.741Z,1.03
2019-05-22T08:17:27.336Z,0.87
2019-05-22T08:19:56.384Z,0.67
2019-05-22T08:22:26.103Z,0.60
2019-05-22T08:24:55.658Z,0.70
2019-05-22T08:27:24.768Z,0.60
2019-05-22T08:29:57.023Z,1.37
2019-05-22T08:32:26.140Z,0.83
2019-05-22T08:34:55.286Z,0.90
2019-05-22T08:37:30.112Z,1.00
2019-05-22T08:40:00.947Z,0.70
2019-05-22T08:42:31.734Z,0.83
2019-05-22T08:45:01.756Z,0.80
2019-05-22T08:47:30.816Z,1.83
2019-05-22T08:50:00.339Z,1.00
2019-05-22T08:52:30.546Z,0.80
2019-05-22T08:55:00.165Z,1.03
2019-05-22T08:57:30.199Z,2.67
2019-05-22T08:59:59.623Z,1.00
2019-05-22T09:02:28.941Z,1.00
2019-05-22T09:04:58.530Z,0.97
2019-05-22T09:07:27.852Z,2.00
2019-05-22T09:09:57.386Z,0.97
2019-05-22T09:12:26.622Z,0.83
2019-05-22T09:14:55.751Z,1.00
2019-05-22T09:17:24.983Z,1.00
2019-05-22T09:19:54.061Z,1.20
2019-05-22T09:22:37.816Z,1.37
2019-05-22T09:24:53.952Z,1.10
2019-05-22T09:27:23.279Z,1.20
2019-05-22T09:29:52.508Z,1.07
2019-05-22T09:32:21.578Z,1.13
2019-05-22T09:34:51.094Z,1.10
2019-05-22T09:37:20.225Z,1.20
2019-05-22T09:39:49.769Z,1.03
2019-05-22T09:42:19.233Z,1.20
2019-05-22T09:44:48.452Z,0.80
2019-05-22T09:47:20.503Z,1.20
2019-05-22T09:49:49.638Z,1.30
2019-05-22T09:52:18.966Z,1.20
2019-05-22T09:54:48.479Z,1.03
2019-05-22T09:57:17.921Z,1.00
2019-05-22T09:59:46.981Z,1.00
2019-05-22T10:02:16.402Z,1.30
2019-05-22T10:04:45.751Z,1.10
2019-05-22T10:07:15.272Z,1.23
2019-05-22T10:09:44.623Z,1.00
2019-05-22T10:12:13.749Z,1.60
2019-05-22T10:14:43.454Z,0.90
2019-05-22T10:17:13.106Z,1.50
2019-05-22T10:19:42.715Z,1.30
2019-05-22T10:22:11.947Z,1.20
2019-05-22T10:24:41.395Z,1.00
2019-05-22T10:27:11.512Z,1.20
2019-05-22T10:29:40.676Z,1.73
2019-05-22T10:32:10.007Z,1.00
2019-05-22T10:34:39.247Z,1.00
2019-05-22T10:37:09.371Z,0.90
2019-05-22T10:39:40.019Z,1.80
2019-05-22T10:42:09.139Z,1.17
2019-05-22T10:44:38.382Z,1.27
2019-05-22T10:47:08.107Z,1.40
2019-05-22T10:49:37.946Z,1.30
2019-05-22T10:52:07.621Z,1.37
2019-05-22T10:54:36.752Z,2.03
2019-05-22T10:57:06.499Z,1.47
2019-05-22T10:59:35.570Z,1.40
2019-05-22T11:02:04.712Z,1.23
2019-05-22T11:04:34.647Z,1.33
2019-05-22T11:07:06.592Z,1.80
2019-05-22T11:09:36.110Z,0.97
2019-05-22T11:12:06.714Z,1.00
2019-05-22T11:14:36.244Z,1.33
2019-05-22T11:17:05.389Z,1.50
2019-05-22T11:19:34.441Z,1.30
2019-05-22T11:22:05.102Z,2.20
2019-05-22T11:24:34.508Z,1.03
2019-05-22T11:27:03.753Z,1.00
2019-05-22T11:29:33.353Z,2.00
2019-05-22T11:32:03.948Z,1.20
2019-05-22T11:34:33.426Z,0.90
2019-05-22T11:37:03.545Z,1.10
2019-05-22T11:39:39.410Z,1.20
2019-05-22T11:42:05.969Z,1.40
2019-05-22T11:44:35.184Z,0.90
2019-05-22T11:47:06.530Z,1.13
2019-05-22T11:49:36.341Z,1.10
2019-05-22T11:52:06.466Z,1.07
2019-05-22T11:54:36.291Z,1.10
2019-05-22T11:57:05.449Z,1.20
2019-05-22T11:59:36.596Z,1.10
2019-05-22T12:02:07.230Z,1.00
2019-05-22T12:04:47.476Z,1.30
2019-05-22T12:07:07.634Z,0.93
2019-05-22T12:09:37.063Z,1.10
2019-05-22T12:12:06.304Z,1.00
2019-05-22T12:14:35.926Z,1.00
2019-05-22T12:17:06.048Z,0.80
2019-05-22T12:19:35.571Z,0.90
2019-05-22T12:22:05.297Z,1.00
2019-05-22T12:24:37.173Z,0.97
2019-05-22T12:27:06.879Z,1.03
2019-05-22T12:29:38.100Z,1.00
2019-05-22T12:32:09.480Z,0.93
2019-05-22T12:34:38.918Z,1.93
2019-05-22T12:37:08.963Z,1.10
2019-05-22T12:39:40.049Z,1.13
2019-05-22T12:42:11.070Z,1.07
2019-05-22T12:44:41.009Z,0.83
2019-05-22T12:47:11.633Z,1.00
2019-05-22T12:49:40.986Z,1.10
2019-05-22T12:52:10.453Z,1.10
2019-05-22T12:54:46.931Z,0.80
2019-05-22T12:57:11.138Z,0.90
2019-05-22T12:59:41.061Z,0.97
2019-05-22T13:02:11.197Z,0.97
2019-05-22T13:04:41.129Z,1.00
2019-05-22T13:07:10.660Z,0.83
2019-05-22T13:09:40.701Z,0.90
2019-05-22T13:12:12.376Z,0.80
2019-05-22T13:14:41.708Z,1.10
2019-05-22T13:17:12.931Z,1.00
2019-05-22T13:19:42.842Z,0.70
2019-05-22T13:22:15.368Z,0.87
2019-05-22T13:24:44.927Z,0.77
2019-05-22T13:27:17.276Z,0.90
2019-05-22T13:29:48.510Z,0.90
2019-05-22T13:32:20.082Z,1.00
2019-05-22T13:34:50.408Z,1.10
2019-05-22T13:37:19.551Z,0.80
2019-05-22T13:39:48.623Z,0.90
2019-05-22T13:42:18.337Z,1.00
2019-05-22T13:44:48.129Z,1.60
2019-05-22T13:47:17.351Z,1.30
2019-05-22T13:49:47.508Z,1.27
2019-05-22T13:52:16.897Z,1.20
2019-05-22T13:54:46.411Z,1.30
2019-05-22T13:57:15.510Z,1.60
2019-05-22T13:59:44.777Z,1.70
2019-05-22T14:02:14.411Z,1.23
2019-05-22T14:04:44.028Z,1.57
2019-05-22T14:07:13.357Z,2.17
2019-05-22T14:09:43.687Z,1.33
2019-05-22T14:12:13.525Z,1.40
2019-05-22T14:14:43.284Z,2.10
2019-05-22T14:17:14.415Z,1.50
2019-05-22T14:19:43.588Z,1.43
2019-05-22T14:22:12.704Z,1.37
2019-05-22T14:24:41.953Z,1.60
2019-05-22T14:27:11.085Z,1.83
2019-05-22T14:29:40.713Z,1.30
2019-05-22T14:32:10.845Z,1.50
2019-05-22T14:34:40.019Z,2.80
2019-05-22T14:37:11.146Z,3.30
2019-05-22T14:39:40.797Z,2.90
2019-05-22T14:42:10.358Z,2.30
2019-05-22T14:44:39.781Z,2.87
2019-05-22T14:47:14.698Z,3.47
2019-05-22T14:49:40.129Z,2.37
2019-05-22T14:52:10.154Z,2.40
2019-05-22T14:54:39.358Z,2.40
2019-05-22T14:57:08.995Z,2.00
2019-05-22T14:59:38.344Z,3.17
2019-05-22T15:02:08.270Z,3.97
2019-05-22T15:04:37.922Z,1.70
2019-05-22T15:07:08.557Z,2.23
2019-05-22T15:09:37.595Z,1.80
2019-05-22T15:12:06.943Z,1.93
2019-05-22T15:14:36.121Z,4.30
2019-05-22T15:17:05.451Z,1.63
2019-05-22T15:19:34.693Z,3.60
2019-05-22T15:22:05.390Z,2.50
2019-05-22T15:24:34.928Z,2.37
2019-05-22T15:27:05.643Z,2.17
2019-05-22T15:29:34.852Z,2.00
2019-05-22T15:32:04.482Z,1.60
2019-05-22T15:34:34.540Z,1.67
2019-05-22T15:37:04.864Z,1.83
2019-05-22T15:39:35.912Z,2.13
2019-05-22T15:42:06.213Z,4.00
2019-05-22T15:44:35.580Z,2.93
2019-05-22T15:47:05.795Z,2.43
2019-05-22T15:49:35.643Z,2.60
2019-05-22T15:52:09.076Z,4.73
2019-05-22T15:54:38.753Z,6.13
2019-05-22T15:57:09.940Z,2.03
2019-05-22T15:59:40.316Z,2.43
2019-05-22T16:02:11.141Z,2.40
2019-05-22T16:04:41.260Z,1.90
2019-05-22T16:07:11.317Z,1.90
2019-05-22T16:09:43.456Z,1.53
2019-05-22T16:12:13.235Z,1.50
2019-05-22T16:14:42.397Z,2.03
2019-05-22T16:17:12.035Z,1.70
2019-05-22T16:19:41.411Z,8.67
2019-05-22T16:22:11.356Z,6.00
2019-05-22T16:24:41.197Z,3.23
2019-05-22T16:27:12.844Z,2.20
2019-05-22T16:29:42.184Z,2.10
2019-05-22T16:32:14.970Z,2.03
2019-05-22T16:34:44.691Z,2.47
2019-05-22T16:37:14.430Z,3.37
2019-05-22T16:39:44.095Z,3.20
2019-05-22T16:42:13.839Z,3.07
2019-05-22T16:44:43.555Z,1.80
2019-05-22T16:47:13.119Z,1.93
2019-05-22T16:49:42.419Z,2.50
2019-05-22T16:52:14.283Z,1.80
2019-05-22T16:54:45.033Z,2.03
2019-05-22T16:57:15.369Z,1.60
2019-05-22T16:59:46.130Z,1.80
2019-05-22T17:02:18.061Z,1.67
2019-05-22T17:04:48.800Z,1.50
2019-05-22T17:07:18.735Z,7.37
2019-05-22T17:09:49.700Z,6.77
2019-05-22T17:12:18.820Z,2.50
2019-05-22T17:14:49.657Z,3.90
2019-05-22T17:17:20.163Z,11.93
2019-05-22T17:19:50.383Z,8.57
2019-05-22T17:22:20.258Z,5.83
2019-05-22T17:24:49.622Z,5.28
2019-05-22T17:27:20.477Z,10.98
2019-05-22T17:29:51.686Z,2.70
2019-05-22T17:32:22.028Z,2.80
2019-05-22T17:34:51.570Z,2.47
2019-05-22T17:37:21.429Z,2.20
2019-05-22T17:39:51.738Z,2.20
2019-05-22T17:42:23.440Z,2.23
2019-05-22T17:44:53.183Z,2.20
2019-05-22T17:47:24.856Z,2.90
2019-05-22T17:49:54.708Z,3.10
2019-05-22T17:52:26.184Z,3.00
2019-05-22T17:54:56.117Z,2.40
2019-05-22T17:57:25.329Z,2.27
2019-05-22T17:59:55.761Z,3.58
2019-05-22T18:02:26.775Z,13.72
2019-05-22T18:04:56.627Z,14.80
2019-05-22T18:07:26.484Z,15.78
2019-05-22T18:09:55.892Z,9.63
2019-05-22T18:12:25.825Z,16.45
2019-05-22T18:14:56.255Z,5.90
2019-05-22T18:17:26.577Z,3.60
2019-05-22T18:19:56.207Z,3.50
2019-05-22T18:22:25.632Z,4.05
2019-05-22T18:24:55.191Z,6.53
2019-05-22T18:27:25.429Z,6.35
2019-05-22T18:29:55.292Z,7.33
2019-05-22T18:32:24.549Z,6.93
2019-05-22T18:34:54.082Z,6.42
2019-05-22T18:37:23.539Z,5.05
2019-05-22T18:39:53.694Z,3.35
2019-05-22T18:42:24.326Z,2.70
2019-05-22T18:44:53.768Z,2.30
2019-05-22T18:47:23.727Z,2.72
2019-05-22T18:49:53.680Z,2.70
2019-05-22T18:52:38.263Z,3.25
2019-05-22T18:54:54.651Z,3.10
2019-05-22T18:57:24.084Z,3.17
2019-05-22T19:00:00.449Z,2.70
2019-05-22T19:02:25.063Z,2.52
2019-05-22T19:04:54.491Z,2.67
2019-05-22T19:07:23.842Z,2.40
2019-05-22T19:09:53.209Z,2.80
2019-05-22T19:12:22.631Z,2.52
2019-05-22T19:14:52.261Z,2.65
2019-05-22T19:17:22.702Z,2.80
2019-05-22T19:19:52.153Z,2.87
2019-05-22T19:22:21.572Z,2.85
2019-05-22T19:24:52.556Z,3.08
2019-05-22T19:27:21.958Z,2.60
2019-05-22T19:29:51.412Z,2.90
2019-05-22T19:32:21.141Z,3.22
2019-05-22T19:34:50.679Z,4.75
2019-05-22T19:37:20.840Z,4.78
2019-05-22T19:39:50.978Z,3.75
2019-05-22T19:42:20.428Z,3.22
2019-05-22T19:44:49.955Z,2.90
2019-05-22T19:47:20.970Z,4.03
2019-05-22T19:49:50.397Z,3.58
2019-05-22T19:52:22.789Z,3.83
2019-05-22T19:54:52.991Z,3.65
2019-05-22T19:57:22.995Z,4.20
2019-05-22T19:59:52.442Z,4.22
2019-05-22T20:02:23.070Z,4.37
2019-05-22T20:04:52.623Z,4.67
2019-05-22T20:07:22.475Z,3.17
2019-05-22T20:09:51.901Z,2.92
2019-05-22T20:12:24.842Z,3.30
2019-05-22T20:14:52.926Z,2.70
2019-05-22T20:17:22.352Z,3.10
2019-05-22T20:19:52.561Z,2.35
2019-05-22T20:22:22.450Z,2.58
2019-05-22T20:24:51.871Z,2.22
2019-05-22T20:27:21.920Z,2.20
2019-05-22T20:29:51.774Z,2.52
2019-05-22T20:32:22.255Z,1.90
2019-05-22T20:34:51.669Z,1.80
2019-05-22T20:37:21.535Z,1.77
2019-05-22T20:39:50.909Z,1.67
2019-05-22T20:42:21.029Z,2.10
2019-05-22T20:44:51.347Z,1.72
2019-05-22T20:47:24.460Z,1.60
2019-05-22T20:49:54.986Z,2.02
2019-05-22T20:52:24.885Z,1.60
2019-05-22T20:54:54.748Z,1.40
2019-05-22T20:57:25.881Z,1.80
2019-05-22T20:59:56.317Z,1.35
2019-05-22T21:02:27.223Z,1.20
2019-05-22T21:04:56.988Z,2.17
2019-05-22T21:07:36.248Z,1.32
2019-05-22T21:10:09.189Z,1.70
2019-05-22T21:12:39.202Z,1.65
2019-05-22T21:15:08.787Z,1.37
2019-05-22T21:17:38.418Z,1.45
2019-05-22T21:20:12.021Z,1.42
2019-05-22T21:22:42.151Z,1.20
2019-05-22T21:25:12.183Z,1.20
2019-05-22T21:27:42.627Z,1.20
2019-05-22T21:30:12.847Z,1.17
2019-05-22T21:32:44.186Z,0.90
2019-05-22T21:35:16.611Z,1.00
2019-05-22T21:37:46.307Z,1.02
2019-05-22T21:40:17.983Z,1.00
2019-05-22T21:42:48.456Z,1.22
2019-05-22T21:45:18.170Z,1.75
2019-05-22T21:47:47.690Z,1.65
2019-05-22T21:50:17.828Z,1.82
2019-05-22T21:52:47.458Z,1.85
2019-05-22T21:55:19.488Z,1.60
2019-05-22T21:57:48.927Z,1.82
2019-05-22T22:00:40.996Z,1.62
2019-05-22T22:03:19.131Z,2.15
2019-05-22T22:05:49.445Z,2.08
2019-05-22T22:08:18.882Z,2.15
2019-05-22T22:10:49.523Z,2.00
2019-05-22T22:13:19.742Z,1.62
2019-05-22T22:15:49.474Z,1.90
2019-05-22T22:18:19.292Z,1.67
2019-05-22T22:20:49.026Z,1.85
2019-05-22T22:23:18.544Z,2.00
2019-05-22T22:25:47.960Z,1.80
2019-05-22T22:28:18.408Z,2.08
2019-05-22T22:30:52.098Z,1.85
2019-05-22T22:33:29.881Z,2.02
2019-05-22T22:36:01.818Z,1.85
2019-05-22T22:38:33.034Z,1.80
2019-05-22T22:41:02.548Z,1.90
2019-05-22T22:43:33.096Z,1.82
2019-05-22T22:46:06.584Z,2.00
2019-05-22T22:48:38.304Z,1.80
2019-05-22T22:51:12.615Z,1.70
2019-05-22T22:53:43.920Z,1.75
2019-05-22T22:56:15.568Z,1.90
2019-05-22T22:58:45.793Z,1.70
2019-05-22T23:01:18.117Z,2.00
2019-05-22T23:03:50.156Z,1.70
2019-05-22T23:06:20.181Z,1.67
2019-05-22T23:08:50.390Z,2.22
2019-05-22T23:11:21.503Z,1.95
2019-05-22T23:13:52.707Z,2.45
2019-05-22T23:16:23.614Z,2.00
2019-05-22T23:19:25.614Z,1.92
2019-05-22T23:21:55.296Z,1.80
2019-05-22T23:24:26.033Z,2.30
2019-05-22T23:26:55.737Z,2.00
2019-05-22T23:29:25.586Z,2.20
2019-05-22T23:31:56.407Z,2.17
2019-05-22T23:34:26.736Z,2.30
2019-05-22T23:36:58.062Z,2.22
2019-05-22T23:39:30.777Z,1.95
2019-05-22T23:42:03.273Z,2.40
2019-05-22T23:44:36.717Z,2.60
2019-05-22T23:47:07.701Z,2.50
2019-05-22T23:49:39.626Z,2.33
2019-05-22T23:52:10.390Z,2.87
2019-05-22T23:54:41.528Z,2.72
2019-05-22T23:57:12.917Z,3.08
2019-05-22T23:59:42.543Z,2.98
